Main page
METAR-TAF:

METAR-TAF

Airports :

Chièvres Air Base

Chièvres, Belgium

latitude: 50-34N, longitude: 003-50E, elevation: 60 m

Current weather observation

The report was made 37 minutes ago, at 08:25 UTC
Wind 11 kt from the East/Northeast
Temperature 2°C
Humidity 80%
Pressure 1027 hPa
Visibility 10 km or more

METAR: EBCV 180825Z AUTO 06011KT 9999 NCD 02/M01 Q1027 BLU

Time: 10:02 (09:02 UTC)

Forecast

The report was made 3 hours and 21 minutes ago, at 05:41 UTC
Forecast valid from 18 at 07 UTC to 18 at 16 UTC
Wind 10 kt from the East/Northeast
Visibility 10 km or more
Few clouds at a height of 27000 ft

TAF: EBCV 180541Z 1807/1816 07010KT 9999 FEW270 BY EBWM

Weather observations and forecasts of more than 4000 airports (METAR and TAF reports).

The available stations are represented by yellow and red dots on the map.

Hover mouse over dot to see the name of the station.

Then click to see weather observations and forecasts.

To change the map : click on the green buttons with a black cross to zoom in, on the green button with a dash to zoom out, or on the green arrows for adjacent maps.


METAR-TAF: